Time;durP1;ratioP1;P1;durP2;ratioP2;P2;SDS_P1;SDS_P2;PMS_P1;PMS_P2;Temp;Humidity;BMP_temperature;BMP_pressure;BME280_temperature;BME280_humidity;BME280_pressure;Samples;Min_cycle;Max_cycle;Signal;HPM_P1;HPM_P2
2021/06/02 07:35:40;;;;;;;14.93;7.90;;;;;;;;;;5056674;23;20053;-44
2021/06/02 07:38:09;;;;;;;11.70;8.47;;;;;;;;;;5030281;28;20337;-48
2021/06/02 07:40:35;;;;;;;12.98;8.68;;;;;;;;;;5029504;28;20021;-45
2021/06/02 07:43:01;;;;;;;24.50;9.47;;;;;;;;;;5029883;28;20044;-42
2021/06/02 07:45:27;;;;;;;16.48;9.52;;;;;;;;;;5023776;28;20096;-44
2021/06/02 07:47:53;;;;;;;11.88;9.18;;;;;;;;;;5029639;28;20044;-52
2021/06/02 07:50:19;;;;;;;12.48;9.93;;;;;;;;;;5031329;28;20021;-46
2021/06/02 07:52:46;;;;;;;13.27;9.88;;;;;;;;;;5025702;28;20041;-47
2021/06/02 07:55:12;;;;;;;12.17;9.87;;;;;;;;;;5021364;28;20050;-48
2021/06/02 07:57:38;;;;;;;12.75;10.23;;;;;;;;;;5034062;28;20272;-48
2021/06/02 08:00:05;;;;;;;13.98;10.52;;;;;;;;;;5007717;28;20026;-50
2021/06/02 08:02:31;;;;;;;16.20;9.23;;;;;;;;;;5009982;28;20025;-48
2021/06/02 08:04:57;;;;;;;11.23;8.00;;;;;;;;;;5023755;28;20033;-47
2021/06/02 08:07:24;;;;;;;11.13;8.00;;;;;;;;;;5021124;28;20478;-46
2021/06/02 08:09:50;;;;;;;9.53;6.90;;;;;;;;;;5013564;28;20017;-50
2021/06/02 08:12:16;;;;;;;8.10;6.70;;;;;;;;;;5016045;28;20634;-49
2021/06/02 08:14:42;;;;;;;8.10;6.18;;;;;;;;;;5026960;28;20052;-49
2021/06/02 08:17:09;;;;;;;8.43;6.93;;;;;;;;;;5019515;28;20044;-48
2021/06/02 08:19:35;;;;;;;;;;;;;;;;;;5014528;28;20041;-48
2021/06/02 08:22:02;;;;;;;8.32;6.13;;;;;;;;;;5038377;28;19905;-48
2021/06/02 08:24:30;;;;;;;8.10;6.13;;;;;;;;;;5010012;28;20504;-48
2021/06/02 08:26:56;;;;;;;7.38;5.63;;;;;;;;;;5018639;28;20040;-44
2021/06/02 08:29:22;;;;;;;10.57;7.63;;;;;;;;;;5031527;28;20032;-47
2021/06/02 08:31:48;;;;;;;12.20;8.47;;;;;;;;;;5030712;28;20075;-49
2021/06/02 08:34:16;;;;;;;15.93;9.35;;;;;;;;;;5009924;28;20304;-50
2021/06/02 08:36:42;;;;;;;18.33;10.55;;;;;;;;;;5026958;28;20538;-47
2021/06/02 08:39:08;;;;;;;16.55;10.98;;;;;;;;;;5003868;28;20034;-49
2021/06/02 08:41:37;;;;;;;15.40;11.10;;;;;;;;;;5027578;28;20544;-48
2021/06/02 08:44:03;;;;;;;16.30;10.63;;;;;;;;;;5010859;28;20045;-47
2021/06/02 08:46:29;;;;;;;16.65;10.77;;;;;;;;;;5028722;28;20538;-48
2021/06/02 08:48:55;;;;;;;19.27;10.97;;;;;;;;;;5003793;28;20033;-48
2021/06/02 08:51:21;;;;;;;18.10;11.33;;;;;;;;;;5026610;28;20029;-47
2021/06/02 08:53:51;;;;;;;15.55;11.63;;;;;;;;;;5017097;28;20029;-46
2021/06/02 08:56:19;;;;;;;15.70;11.07;;;;;;;;;;5013586;28;20033;-47
2021/06/02 08:58:45;;;;;;;16.52;11.25;;;;;;;;;;5032544;28;20028;-48
2021/06/02 09:01:14;;;;;;;13.48;10.82;;;;;;;;;;5039123;28;20032;-48
2021/06/02 09:03:40;;;;;;;16.23;11.68;;;;;;;;;;5032547;28;20022;-48
2021/06/02 09:06:09;;;;;;;17.33;12.10;;;;;;;;;;5044114;28;20043;-48
2021/06/02 09:08:38;;;;;;;18.27;12.27;;;;;;;;;;5032688;28;20113;-48
2021/06/02 09:11:31;;;;;;;16.92;11.68;;;;;;;;;;5032634;28;20018;-47
2021/06/02 09:13:59;;;;;;;16.20;12.07;;;;;;;;;;5025712;28;20041;-46
2021/06/02 09:16:28;;;;;;;17.63;12.13;;;;;;;;;;5030805;28;20493;-49
2021/06/02 09:18:58;;;;;;;16.48;12.30;;;;;;;;;;5032334;28;20029;-48
2021/06/02 09:21:27;;;;;;;18.23;11.70;;;;;;;;;;5032134;28;20108;-47
2021/06/02 09:23:54;;;;;;;15.30;12.18;;;;;;;;;;5014241;28;20473;-47
2021/06/02 09:26:26;;;;;;;16.27;12.52;;;;;;;;;;5031093;28;20018;-49
2021/06/02 09:29:12;;;;;;;19.48;12.20;;;;;;;;;;5034082;28;20482;-51
2021/06/02 09:31:42;;;;;;;20.77;12.75;;;;;;;;;;5032254;28;20037;-51
2021/06/02 09:34:18;;;;;;;20.25;13.13;;;;;;;;;;5034234;28;20385;-47
2021/06/02 09:36:44;;;;;;;;;;;;;;;;;;5032961;28;20041;-52
2021/06/02 09:39:12;;;;;;;15.13;11.77;;;;;;;;;;5031966;28;19975;-51
2021/06/02 09:41:42;;;;;;;16.48;12.10;;;;;;;;;;5034291;28;20532;-46
2021/06/02 09:44:14;;;;;;;16.08;11.75;;;;;;;;;;5019910;28;20036;-47
2021/06/02 09:46:59;;;;;;;19.83;13.30;;;;;;;;;;5034092;28;20030;-48
2021/06/02 09:49:26;;;;;;;18.15;12.73;;;;;;;;;;5033375;28;20095;-51
2021/06/02 09:51:55;;;;;;;19.73;12.52;;;;;;;;;;5024539;28;20053;-49
2021/06/02 09:54:23;;;;;;;16.42;11.80;;;;;;;;;;5028239;28;20056;-48
2021/06/02 09:56:49;;;;;;;21.17;12.98;;;;;;;;;;5035539;28;20486;-47
2021/06/02 09:59:16;;;;;;;18.02;12.05;;;;;;;;;;5041607;28;20025;-47
2021/06/02 10:01:48;;;;;;;17.55;12.55;;;;;;;;;;5033185;28;20115;-49
2021/06/02 10:04:14;;;;;;;17.40;12.50;;;;;;;;;;5040086;28;20056;-48
2021/06/02 10:06:40;;;;;;;18.77;12.25;;;;;;;;;;5041546;28;20068;-48
2021/06/02 10:09:08;;;;;;;16.73;11.90;;;;;;;;;;5043964;28;20017;-51
2021/06/02 10:11:35;;;;;;;19.35;12.05;;;;;;;;;;5015056;28;20053;-50
2021/06/02 10:14:01;;;;;;;16.75;11.32;;;;;;;;;;5037762;28;20485;-48
2021/06/02 10:16:37;;;;;;;17.02;11.63;;;;;;;;;;5040047;28;20067;-49
2021/06/02 10:19:03;;;;;;;17.15;11.80;;;;;;;;;;5045047;28;20435;-49
2021/06/02 10:21:46;;;;;;;15.57;10.40;;;;;;;;;;5038065;28;20029;-49
2021/06/02 10:24:12;;;;;;;17.38;11.63;;;;;;;;;;5027010;28;20029;-48
2021/06/02 10:26:38;;;;;;;16.77;11.03;;;;;;;;;;5031845;28;20030;-49
2021/06/02 10:29:05;;;;;;;15.70;11.20;;;;;;;;;;5020280;28;20244;-51
2021/06/02 10:31:32;;;;;;;19.95;11.45;;;;;;;;;;5013872;28;20041;-48
2021/06/02 10:33:58;;;;;;;15.68;10.95;;;;;;;;;;5029563;28;20041;-48
2021/06/02 10:36:25;;;;;;;18.13;12.50;;;;;;;;;;5013147;28;20064;-50
2021/06/02 10:39:01;;;;;;;17.33;11.68;;;;;;;;;;5021625;28;20105;-48
2021/06/02 10:41:27;;;;;;;19.63;12.18;;;;;;;;;;5035872;28;20499;-48
2021/06/02 10:43:56;;;;;;;17.08;11.88;;;;;;;;;;5035921;28;20026;-47
2021/06/02 10:46:24;;;;;;;16.58;10.93;;;;;;;;;;5041517;28;20120;-48
2021/06/02 10:48:57;;;;;;;21.92;12.45;;;;;;;;;;5033250;28;20113;-50
2021/06/02 10:51:29;;;;;;;20.42;12.63;;;;;;;;;;5044978;28;20377;-51
2021/06/02 10:54:04;;;;;;;20.60;12.02;;;;;;;;;;5030617;28;20038;-48
2021/06/02 10:56:30;;;;;;;21.95;13.23;;;;;;;;;;5031754;28;20048;-48
2021/06/02 10:58:57;;;;;;;34.55;13.55;;;;;;;;;;5041455;28;20504;-49
2021/06/02 11:01:23;;;;;;;22.60;13.40;;;;;;;;;;5036198;28;20048;-48
2021/06/02 11:04:10;;;;;;;22.60;12.77;;;;;;;;;;5012983;28;20505;-48
2021/06/02 11:06:37;;;;;;;18.10;12.32;;;;;;;;;;5026354;28;20022;-47
2021/06/02 11:09:05;;;;;;;;;;;;;;;;;;5031025;28;20021;-46
2021/06/02 11:11:32;;;;;;;18.30;13.07;;;;;;;;;;5030091;28;19909;-46
2021/06/02 11:13:58;;;;;;;;;;;;;;;;;;5030328;28;20076;-48
2021/06/02 11:16:40;;;;;;;18.80;12.25;;;;;;;;;;5044250;28;19944;-47
2021/06/02 11:19:19;;;;;;;19.48;12.55;;;;;;;;;;5030599;28;20212;-47
2021/06/02 11:21:55;;;;;;;17.77;12.18;;;;;;;;;;5020022;28;20163;-46
2021/06/02 11:24:33;;;;;;;17.85;12.50;;;;;;;;;;5034552;28;20112;-50
2021/06/02 11:27:14;;;;;;;17.45;12.90;;;;;;;;;;5030543;28;20014;-48
2021/06/02 11:29:50;;;;;;;20.58;12.00;;;;;;;;;;5038368;28;20034;-47
2021/06/02 11:32:18;;;;;;;20.23;12.63;;;;;;;;;;5042389;28;20144;-47
2021/06/02 11:34:52;;;;;;;20.42;12.38;;;;;;;;;;5029430;28;20061;-49
2021/06/02 11:37:22;;;;;;;21.10;12.23;;;;;;;;;;5029902;28;20044;-48
2021/06/02 11:39:51;;;;;;;18.60;11.35;;;;;;;;;;5030013;28;20411;-47
2021/06/02 11:42:48;;;;;;;14.57;11.50;;;;;;;;;;5029058;28;20022;-47
2021/06/02 11:45:20;;;;;;;17.60;11.80;;;;;;;;;;5024966;28;20057;-48
2021/06/02 11:47:48;;;;;;;16.33;12.48;;;;;;;;;;5030078;28;20108;-47
2021/06/02 11:50:16;;;;;;;18.40;11.85;;;;;;;;;;5029826;28;20107;-49
2021/06/02 11:52:43;;;;;;;19.05;11.05;;;;;;;;;;5029362;28;20053;-48
2021/06/02 11:55:10;;;;;;;18.35;11.20;;;;;;;;;;5029391;28;20112;-48
2021/06/02 11:57:39;;;;;;;;;;;;;;;;;;5030601;28;20029;-50
2021/06/02 12:00:09;;;;;;;19.70;11.35;;;;;;;;;;5014628;28;19992;-47
2021/06/02 12:02:36;;;;;;;16.20;11.40;;;;;;;;;;5030033;28;20022;-48
2021/06/02 12:05:19;;;;;;;17.48;11.00;;;;;;;;;;5029986;28;20048;-48
2021/06/02 12:07:49;;;;;;;19.73;12.10;;;;;;;;;;5029734;28;20040;-48
2021/06/02 12:10:18;;;;;;;18.83;11.65;;;;;;;;;;5030137;28;20025;-48
2021/06/02 12:12:45;;;;;;;18.25;11.38;;;;;;;;;;5029197;28;20091;-51
2021/06/02 12:15:11;;;;;;;17.50;11.38;;;;;;;;;;5029646;28;20044;-47
2021/06/02 12:17:38;;;;;;;18.73;11.52;;;;;;;;;;5030109;28;20462;-43
2021/06/02 12:20:06;;;;;;;18.10;11.80;;;;;;;;;;5012286;28;20041;-45
2021/06/02 12:22:32;;;;;;;15.98;11.27;;;;;;;;;;5011383;28;20707;-41
2021/06/02 12:25:02;;;;;;;16.97;9.83;;;;;;;;;;5029710;28;20040;-46
2021/06/02 12:27:28;;;;;;;14.38;10.32;;;;;;;;;;5021671;28;20478;-46
2021/06/02 12:30:05;;;;;;;15.80;9.88;;;;;;;;;;5028289;28;20025;-45
2021/06/02 12:32:42;;;;;;;14.82;10.13;;;;;;;;;;5030292;28;20034;-47
2021/06/02 12:35:08;;;;;;;;;;;;;;;;;;5028764;28;20065;-47
2021/06/02 12:37:34;;;;;;;14.93;9.27;;;;;;;;;;5028268;28;19909;-46
2021/06/02 12:40:06;;;;;;;13.40;9.57;;;;;;;;;;5007588;28;20395;-47
2021/06/02 12:42:35;;;;;;;14.27;9.55;;;;;;;;;;5023164;28;20064;-46
2021/06/02 12:45:01;;;;;;;12.77;8.73;;;;;;;;;;5026937;28;20113;-46
2021/06/02 12:47:27;;;;;;;12.47;8.70;;;;;;;;;;5025563;28;20048;-50
2021/06/02 12:49:58;;;;;;;12.15;9.75;;;;;;;;;;5009489;28;20033;-45
2021/06/02 12:52:26;;;;;;;12.00;8.48;;;;;;;;;;5033915;28;20036;-46
2021/06/02 12:54:55;;;;;;;11.95;9.10;;;;;;;;;;5029421;28;20041;-48
2021/06/02 12:57:24;;;;;;;12.85;8.45;;;;;;;;;;5029396;28;20022;-48
2021/06/02 12:59:50;;;;;;;11.48;8.45;;;;;;;;;;5029453;28;20029;-49
2021/06/02 13:02:16;;;;;;;11.43;8.30;;;;;;;;;;5041668;28;20085;-50
2021/06/02 13:04:42;;;;;;;12.63;8.83;;;;;;;;;;5026619;28;20029;-47
2021/06/02 13:07:08;;;;;;;12.10;8.35;;;;;;;;;;5032841;28;20030;-47
2021/06/02 13:09:34;;;;;;;10.07;8.02;;;;;;;;;;5032646;28;20020;-47
2021/06/02 13:12:00;;;;;;;10.70;8.67;;;;;;;;;;5029789;28;20025;-46
2021/06/02 13:14:34;;;;;;;11.35;7.15;;;;;;;;;;5026620;28;20060;-47
2021/06/02 13:17:00;;;;;;;11.20;8.55;;;;;;;;;;5029829;28;20114;-49
2021/06/02 13:19:52;;;;;;;11.33;8.07;;;;;;;;;;5029483;28;20718;-47
2021/06/02 13:22:20;;;;;;;11.75;9.48;;;;;;;;;;5026096;28;20041;-49
2021/06/02 13:24:46;;;;;;;12.43;8.70;;;;;;;;;;5027642;28;20448;-47
2021/06/02 13:27:16;;;;;;;9.73;8.30;;;;;;;;;;5029333;28;20536;-50
2021/06/02 13:30:02;;;;;;;11.98;9.25;;;;;;;;;;5022645;28;20280;-48
2021/06/02 13:32:28;;;;;;;15.18;9.73;;;;;;;;;;5026118;28;20032;-49
2021/06/02 13:34:54;;;;;;;12.55;8.93;;;;;;;;;;5031520;28;20080;-51
2021/06/02 13:37:23;;;;;;;15.57;9.52;;;;;;;;;;5028962;28;20025;-49
2021/06/02 13:40:04;;;;;;;10.98;8.40;;;;;;;;;;5040295;28;20017;-48
2021/06/02 13:42:30;;;;;;;16.15;9.65;;;;;;;;;;5035351;28;20017;-49
2021/06/02 13:44:57;;;;;;;12.75;8.68;;;;;;;;;;5036447;28;20534;-49
2021/06/02 13:47:33;;;;;;;12.38;9.00;;;;;;;;;;5020536;28;20029;-49
2021/06/02 13:50:14;;;;;;;11.90;8.90;;;;;;;;;;5035449;28;20421;-44
2021/06/02 13:52:40;;;;;;;16.40;9.32;;;;;;;;;;5021247;28;20032;-48
2021/06/02 13:55:10;;;;;;;12.48;8.10;;;;;;;;;;5031535;28;20410;-48
2021/06/02 13:57:39;;;;;;;11.63;8.07;;;;;;;;;;5001219;28;20049;-49
2021/06/02 14:00:06;;;;;;;13.23;7.38;;;;;;;;;;5014156;28;20060;-48
2021/06/02 14:02:36;;;;;;;13.20;7.70;;;;;;;;;;5031063;28;20026;-51
2021/06/02 14:05:03;;;;;;;9.38;7.75;;;;;;;;;;5014799;28;20021;-48
2021/06/02 14:07:29;;;;;;;8.57;7.20;;;;;;;;;;5032487;28;20048;-48
2021/06/02 14:09:55;;;;;;;10.97;7.60;;;;;;;;;;5032737;28;20101;-46
2021/06/02 14:12:22;;;;;;;8.97;6.43;;;;;;;;;;5032586;28;20022;-47
2021/06/02 14:14:48;;;;;;;10.88;7.30;;;;;;;;;;5032579;28;20109;-50
2021/06/02 14:17:15;;;;;;;8.38;6.75;;;;;;;;;;5032704;28;20105;-49
2021/06/02 14:19:42;;;;;;;9.98;7.68;;;;;;;;;;5032609;28;20044;-50
2021/06/02 14:22:09;;;;;;;9.73;6.93;;;;;;;;;;5014739;28;20029;-49
2021/06/02 14:24:38;;;;;;;9.13;6.65;;;;;;;;;;5032218;28;20125;-52
2021/06/02 14:27:08;;;;;;;10.40;7.22;;;;;;;;;;5022354;28;20044;-50
2021/06/02 14:29:37;;;;;;;9.63;7.30;;;;;;;;;;5031745;28;20029;-49
2021/06/02 14:32:07;;;;;;;11.27;6.78;;;;;;;;;;5031755;28;20076;-52
2021/06/02 14:34:33;;;;;;;7.90;6.45;;;;;;;;;;5032375;28;20136;-50
2021/06/02 14:36:59;;;;;;;9.18;7.03;;;;;;;;;;5032225;28;20037;-49
2021/06/02 14:39:26;;;;;;;10.70;6.70;;;;;;;;;;5032806;28;20108;-46
2021/06/02 14:41:54;;;;;;;;;;;;;;;;;;5032574;28;20100;-46
2021/06/02 14:44:20;;;;;;;8.07;6.68;;;;;;;;;;5032059;28;19905;-47
2021/06/02 14:46:46;;;;;;;9.90;7.28;;;;;;;;;;5036174;28;20021;-48
2021/06/02 14:49:12;;;;;;;11.07;7.33;;;;;;;;;;5014425;28;20025;-47
2021/06/02 14:51:39;;;;;;;10.70;6.63;;;;;;;;;;5014583;28;20022;-46
2021/06/02 14:54:06;;;;;;;10.00;6.97;;;;;;;;;;5031862;28;20487;-50
2021/06/02 14:56:32;;;;;;;9.82;6.65;;;;;;;;;;5031559;28;20490;-48
2021/06/02 14:58:58;;;;;;;7.20;6.25;;;;;;;;;;5013965;28;20025;-45
2021/06/02 15:01:28;;;;;;;7.38;5.82;;;;;;;;;;5031136;28;20397;-46
2021/06/02 15:03:54;;;;;;;7.38;6.10;;;;;;;;;;5022180;28;20140;-46
2021/06/02 15:06:21;;;;;;;8.73;6.45;;;;;;;;;;5033693;28;20025;-50
2021/06/02 15:08:47;;;;;;;7.55;5.75;;;;;;;;;;5013671;28;20052;-46
2021/06/02 15:11:13;;;;;;;8.87;6.30;;;;;;;;;;5031357;28;20040;-47
2021/06/02 15:13:39;;;;;;;7.20;5.83;;;;;;;;;;5032003;28;20069;-48
2021/06/02 15:16:05;;;;;;;7.87;6.17;;;;;;;;;;5030858;28;20399;-47
2021/06/02 15:18:32;;;;;;;9.82;6.63;;;;;;;;;;5013194;28;20033;-47
2021/06/02 15:20:59;;;;;;;8.23;5.90;;;;;;;;;;5031934;28;20025;-47
2021/06/02 15:23:26;;;;;;;7.22;5.93;;;;;;;;;;5029749;28;20101;-48
2021/06/02 15:25:53;;;;;;;6.97;5.70;;;;;;;;;;5012846;28;20048;-47
2021/06/02 15:28:38;;;;;;;9.48;6.50;;;;;;;;;;5031156;28;20119;-48
2021/06/02 15:31:05;;;;;;;8.75;5.90;;;;;;;;;;5031116;28;20104;-51
2021/06/02 15:33:32;;;;;;;7.50;6.15;;;;;;;;;;5031039;28;20017;-47
2021/06/02 15:35:58;;;;;;;;;;;;;;;;;;5031203;28;20488;-47
2021/06/02 15:38:25;;;;;;;7.80;6.45;;;;;;;;;;5031393;28;19940;-46
2021/06/02 15:41:00;;;;;;;7.75;6.22;;;;;;;;;;5013310;28;20108;-47
2021/06/02 15:43:28;;;;;;;8.38;6.53;;;;;;;;;;5031454;28;20656;-46
2021/06/02 15:45:55;;;;;;;8.48;5.78;;;;;;;;;;5035549;28;20025;-48
2021/06/02 15:48:22;;;;;;;6.50;5.25;;;;;;;;;;5013271;28;20017;-50
2021/06/02 15:50:48;;;;;;;6.95;5.35;;;;;;;;;;5031202;28;20033;-47
2021/06/02 15:53:19;;;;;;;7.20;6.00;;;;;;;;;;5031290;28;20036;-47
2021/06/02 15:55:45;;;;;;;7.43;5.60;;;;;;;;;;5000330;28;20053;-47
2021/06/02 15:58:12;;;;;;;8.17;5.43;;;;;;;;;;5030889;28;20053;-47
2021/06/02 16:00:42;;;;;;;7.22;5.80;;;;;;;;;;5023831;28;20245;-47
2021/06/02 16:03:08;;;;;;;6.97;5.95;;;;;;;;;;5007176;28;20033;-47
2021/06/02 16:05:34;;;;;;;7.57;5.93;;;;;;;;;;5040263;28;20054;-46
2021/06/02 16:08:01;;;;;;;7.28;5.80;;;;;;;;;;5030140;28;20429;-46
2021/06/02 16:10:27;;;;;;;7.28;6.47;;;;;;;;;;5030771;28;20552;-47
2021/06/02 16:12:57;;;;;;;7.90;6.15;;;;;;;;;;5030433;28;20029;-48
2021/06/02 16:15:23;;;;;;;8.23;6.30;;;;;;;;;;5030629;28;20029;-47
2021/06/02 16:17:51;;;;;;;9.13;7.07;;;;;;;;;;5012412;28;20061;-47
2021/06/02 16:20:17;;;;;;;7.15;5.68;;;;;;;;;;5030508;28;20456;-47
2021/06/02 16:22:44;;;;;;;7.50;6.20;;;;;;;;;;5030152;28;20033;-50
2021/06/02 16:25:10;;;;;;;9.10;6.45;;;;;;;;;;5030517;28;20776;-46
2021/06/02 16:27:37;;;;;;;8.93;6.53;;;;;;;;;;5030100;28;20052;-46
2021/06/02 16:30:03;;;;;;;;;;;;;;;;;;5030978;28;20030;-46
2021/06/02 16:32:33;;;;;;;8.68;6.32;;;;;;;;;;5030351;28;19916;-46
2021/06/02 16:34:59;;;;;;;6.60;5.55;;;;;;;;;;5030678;28;20136;-45
2021/06/02 16:37:26;;;;;;;7.27;5.70;;;;;;;;;;5028904;28;20036;-51
2021/06/02 20:57:31;;;;;;;17.73;11.30;;;;;;;;;;5985279;23;20451;-49
2021/06/02 20:59:58;;;;;;;13.75;10.43;;;;;;;;;;5011008;28;20140;-48
2021/06/02 21:02:24;;;;;;;18.47;11.80;;;;;;;;;;5014039;28;20487;-47
2021/06/02 21:04:51;;;;;;;15.70;11.53;;;;;;;;;;5005818;28;20525;-50
2021/06/02 21:07:19;;;;;;;17.23;10.50;;;;;;;;;;5014405;28;20081;-47
2021/06/02 21:09:47;;;;;;;16.42;10.63;;;;;;;;;;5013780;28;20098;-48
2021/06/02 21:12:14;;;;;;;14.40;10.35;;;;;;;;;;5015900;28;20018;-46
2021/06/02 21:14:41;;;;;;;14.27;10.50;;;;;;;;;;5018903;28;20030;-46
2021/06/02 21:17:07;;;;;;;13.10;9.90;;;;;;;;;;5013838;28;20024;-47
2021/06/02 21:19:34;;;;;;;14.18;10.50;;;;;;;;;;5013796;28;20033;-48
2021/06/02 21:22:00;;;;;;;;;;;;;;;;;;5014518;28;20038;-46
2021/06/02 21:24:26;;;;;;;14.70;10.70;;;;;;;;;;5013583;28;20338;-46
2021/06/02 21:26:53;;;;;;;13.10;10.80;;;;;;;;;;5013814;28;20268;-46
2021/06/02 21:29:19;;;;;;;15.82;10.60;;;;;;;;;;5012906;28;20482;-47
2021/06/02 21:31:46;;;;;;;15.73;11.52;;;;;;;;;;5012721;28;20038;-49
2021/06/02 21:34:13;;;;;;;16.00;11.20;;;;;;;;;;5013829;28;20052;-45
2021/06/02 21:36:40;;;;;;;15.90;11.73;;;;;;;;;;5013942;28;20431;-52
2021/06/02 21:39:06;;;;;;;14.35;10.82;;;;;;;;;;5013630;28;20109;-48
2021/06/02 21:41:33;;;;;;;16.05;11.77;;;;;;;;;;5010690;28;20037;-47
